Aérodrome :
LOGIN :

S'inscrire | Disclaimer

   EN    FR    IT 

 










Légende :    VFR   VFR Marginal   IFR   IFR Intensif   IFR Très Intensif
Visi : 
Plafond : 
>= 8 km
>= 3000ft
5 à 8 km
1000 à 3000 ft
1500m à 5 km
500 à 1000 ft
800 à 1500m
200 à 500 ft
< 800m
< 200 ft
Symboles :   Orages  Brouillard  Fortes neiges  Fortes précipitations  Vent > 20 kt
SIGMETs :   Divers  Orages  Givrage  Turbulence  Onde Orograph.  Cendres Volcan.







- Altitude de l'aérodrome : 52 ft
- Code IATA : IOM
- Voir les cartes d'approche


EGNS - Isle of Man

DERNIER METAR :
  • 201350Z 18018KT 6000 -RA SCT004 OVC006 15/14 Q1010 TEMPO 4000 RADZ BKN004

METARs EXPIRÉS :
  • 201320Z 18017KT 5000 RA FEW005 OVC006 15/14 Q1010 TEMPO BKN005
  • 201250Z 18015KT 9000 RA FEW005 OVC007 15/14 Q1011 TEMPO 5000 BKN005
  • 201220Z 19017KT 9999 -RA FEW005 OVC008 15/14 Q1011 TEMPO 5000 RADZ BKN005
  • 201150Z 19018KT 9999 SCT005 OVC006 15/14 Q1011 TEMPO 7000 RADZ BKN006
  • 201120Z 19015KT 9999 FEW006 OVC008 15/14 Q1011 TEMPO 7000 RADZ BKN006

TAF TAF EGNS
Valide du 20 à 12h jusqu'au 20 à 21h UTC


201100Z 2012/2021 19017KT 9999 SCT008 BKN015
BECMG 2012/2015 7000 -RADZ FEW004 SCT006 BKN008
TEMPO 2012/2018 3000 RADZ +RA BKN004
PROB40
TEMPO 2018/2021 1500 RADZ BR BKN002
Pas de NOTAMs connus pour ce terrain.



MET'MAP, la Météo Aéronautique d'un coup d'oeil ! - Copyright ORBIFLY Décembre 2007 - Disclaimer

ORBIFLY MET'MAP TEAM :

Programmation & Développement : Alexandra Zaïnal
Conception & Développement : Baudouin d'Aumeries
Co-Programmation & Développement : Marc-Olivier Méhu
Soutien technique & logistique : Manuel Goepfert

Contact : metmap@orbifly.com




SOURCES & CREDITS :

   NOAA